sensor_id;sensor_type;location;lat;lon;timestamp;P1;durP1;ratioP1;P2;durP2;ratioP2
5845;SDS011;2949;50.778;7.094;2023-03-15T00:01:08;14.93;;;1.90;;
5845;SDS011;2949;50.778;7.094;2023-03-15T00:03:38;8.37;;;2.30;;
5845;SDS011;2949;50.778;7.094;2023-03-15T00:06:04;13.33;;;2.23;;
5845;SDS011;2949;50.778;7.094;2023-03-15T00:08:30;6.90;;;1.70;;
5845;SDS011;2949;50.778;7.094;2023-03-15T00:10:59;8.43;;;2.23;;
5845;SDS011;2949;50.778;7.094;2023-03-15T00:13:25;10.60;;;2.10;;
5845;SDS011;2949;50.778;7.094;2023-03-15T00:15:52;9.03;;;1.93;;
5845;SDS011;2949;50.778;7.094;2023-03-15T00:18:21;12.10;;;2.37;;
5845;SDS011;2949;50.778;7.094;2023-03-15T00:20:47;10.80;;;2.57;;
5845;SDS011;2949;50.778;7.094;2023-03-15T00:23:13;13.00;;;2.80;;
5845;SDS011;2949;50.778;7.094;2023-03-15T00:25:39;19.00;;;2.03;;
5845;SDS011;2949;50.778;7.094;2023-03-15T00:28:04;9.83;;;2.30;;
5845;SDS011;2949;50.778;7.094;2023-03-15T00:30:30;10.33;;;2.90;;
5845;SDS011;2949;50.778;7.094;2023-03-15T00:32:56;10.03;;;2.40;;
5845;SDS011;2949;50.778;7.094;2023-03-15T00:35:22;9.20;;;2.13;;
5845;SDS011;2949;50.778;7.094;2023-03-15T00:37:48;18.53;;;3.40;;
5845;SDS011;2949;50.778;7.094;2023-03-15T00:40:13;7.13;;;2.97;;
5845;SDS011;2949;50.778;7.094;2023-03-15T00:42:39;14.90;;;3.20;;
5845;SDS011;2949;50.778;7.094;2023-03-15T00:45:05;9.07;;;2.80;;
5845;SDS011;2949;50.778;7.094;2023-03-15T00:47:31;13.97;;;3.30;;
5845;SDS011;2949;50.778;7.094;2023-03-15T00:49:57;8.60;;;3.40;;
5845;SDS011;2949;50.778;7.094;2023-03-15T00:52:22;6.13;;;3.03;;
5845;SDS011;2949;50.778;7.094;2023-03-15T00:54:52;13.20;;;3.30;;
5845;SDS011;2949;50.778;7.094;2023-03-15T00:57:19;11.97;;;3.33;;
5845;SDS011;2949;50.778;7.094;2023-03-15T00:59:44;15.87;;;3.93;;
5845;SDS011;2949;50.778;7.094;2023-03-15T01:02:10;11.93;;;3.73;;
5845;SDS011;2949;50.778;7.094;2023-03-15T01:04:36;8.27;;;3.50;;
5845;SDS011;2949;50.778;7.094;2023-03-15T01:07:02;8.70;;;4.17;;
5845;SDS011;2949;50.778;7.094;2023-03-15T01:09:28;17.10;;;5.10;;
5845;SDS011;2949;50.778;7.094;2023-03-15T01:11:55;14.93;;;4.30;;
5845;SDS011;2949;50.778;7.094;2023-03-15T01:14:23;10.70;;;3.60;;
5845;SDS011;2949;50.778;7.094;2023-03-15T01:16:49;9.20;;;4.07;;
5845;SDS011;2949;50.778;7.094;2023-03-15T01:19:14;12.17;;;4.70;;
5845;SDS011;2949;50.778;7.094;2023-03-15T01:21:40;11.33;;;4.47;;
5845;SDS011;2949;50.778;7.094;2023-03-15T01:24:06;16.10;;;4.40;;
5845;SDS011;2949;50.778;7.094;2023-03-15T01:26:36;11.60;;;4.60;;
5845;SDS011;2949;50.778;7.094;2023-03-15T01:29:01;8.77;;;3.83;;
5845;SDS011;2949;50.778;7.094;2023-03-15T01:31:27;10.37;;;4.30;;
5845;SDS011;2949;50.778;7.094;2023-03-15T01:33:54;8.87;;;4.80;;
5845;SDS011;2949;50.778;7.094;2023-03-15T01:36:20;18.47;;;5.20;;
5845;SDS011;2949;50.778;7.094;2023-03-15T01:38:46;8.10;;;4.67;;
5845;SDS011;2949;50.778;7.094;2023-03-15T01:41:13;11.57;;;4.80;;
5845;SDS011;2949;50.778;7.094;2023-03-15T01:43:41;15.07;;;3.80;;
5845;SDS011;2949;50.778;7.094;2023-03-15T01:46:14;15.70;;;4.00;;
5845;SDS011;2949;50.778;7.094;2023-03-15T01:51:20;18.83;;;4.17;;
5845;SDS011;2949;50.778;7.094;2023-03-15T01:53:52;11.23;;;3.80;;
5845;SDS011;2949;50.778;7.094;2023-03-15T01:56:21;23.70;;;5.20;;
5845;SDS011;2949;50.778;7.094;2023-03-15T01:58:48;11.00;;;4.63;;
5845;SDS011;2949;50.778;7.094;2023-03-15T02:01:16;13.23;;;4.10;;
5845;SDS011;2949;50.778;7.094;2023-03-15T02:03:44;6.47;;;3.57;;
5845;SDS011;2949;50.778;7.094;2023-03-15T02:06:15;9.43;;;4.43;;
5845;SDS011;2949;50.778;7.094;2023-03-15T02:08:44;12.80;;;4.33;;
5845;SDS011;2949;50.778;7.094;2023-03-15T02:11:13;9.13;;;4.87;;
5845;SDS011;2949;50.778;7.094;2023-03-15T02:13:41;12.20;;;6.70;;
5845;SDS011;2949;50.778;7.094;2023-03-15T02:16:08;15.63;;;4.43;;
5845;SDS011;2949;50.778;7.094;2023-03-15T02:18:34;18.90;;;4.87;;
5845;SDS011;2949;50.778;7.094;2023-03-15T02:21:06;11.10;;;5.50;;
5845;SDS011;2949;50.778;7.094;2023-03-15T02:26:41;12.17;;;4.33;;
5845;SDS011;2949;50.778;7.094;2023-03-15T02:29:11;10.03;;;5.43;;
5845;SDS011;2949;50.778;7.094;2023-03-15T02:31:37;14.93;;;4.80;;
5845;SDS011;2949;50.778;7.094;2023-03-15T02:34:04;10.53;;;4.37;;
5845;SDS011;2949;50.778;7.094;2023-03-15T02:36:31;17.43;;;4.93;;
5845;SDS011;2949;50.778;7.094;2023-03-15T02:38:57;13.00;;;4.30;;
5845;SDS011;2949;50.778;7.094;2023-03-15T02:41:25;9.47;;;4.83;;
5845;SDS011;2949;50.778;7.094;2023-03-15T02:43:56;12.40;;;5.13;;
5845;SDS011;2949;50.778;7.094;2023-03-15T02:46:26;15.23;;;4.27;;
5845;SDS011;2949;50.778;7.094;2023-03-15T02:48:52;18.07;;;5.30;;
5845;SDS011;2949;50.778;7.094;2023-03-15T02:51:19;12.10;;;4.90;;
5845;SDS011;2949;50.778;7.094;2023-03-15T02:53:46;12.20;;;4.90;;
5845;SDS011;2949;50.778;7.094;2023-03-15T02:56:12;12.83;;;4.80;;
5845;SDS011;2949;50.778;7.094;2023-03-15T02:58:38;10.77;;;4.73;;
5845;SDS011;2949;50.778;7.094;2023-03-15T03:01:04;13.43;;;4.40;;
5845;SDS011;2949;50.778;7.094;2023-03-15T03:03:29;7.43;;;4.87;;
5845;SDS011;2949;50.778;7.094;2023-03-15T03:05:55;7.40;;;4.77;;
5845;SDS011;2949;50.778;7.094;2023-03-15T03:08:20;9.90;;;4.83;;
5845;SDS011;2949;50.778;7.094;2023-03-15T03:10:46;16.77;;;5.50;;
5845;SDS011;2949;50.778;7.094;2023-03-15T03:13:12;11.23;;;4.90;;
5845;SDS011;2949;50.778;7.094;2023-03-15T03:15:38;9.47;;;5.20;;
5845;SDS011;2949;50.778;7.094;2023-03-15T03:18:04;15.27;;;5.57;;
5845;SDS011;2949;50.778;7.094;2023-03-15T03:20:30;19.80;;;5.87;;
5845;SDS011;2949;50.778;7.094;2023-03-15T03:22:55;16.03;;;6.77;;
5845;SDS011;2949;50.778;7.094;2023-03-15T03:25:21;18.50;;;6.13;;
5845;SDS011;2949;50.778;7.094;2023-03-15T03:27:51;13.13;;;6.00;;
5845;SDS011;2949;50.778;7.094;2023-03-15T03:30:20;14.37;;;6.60;;
5845;SDS011;2949;50.778;7.094;2023-03-15T03:32:46;12.73;;;5.97;;
5845;SDS011;2949;50.778;7.094;2023-03-15T03:35:12;12.20;;;6.00;;
5845;SDS011;2949;50.778;7.094;2023-03-15T03:37:37;11.83;;;6.07;;
5845;SDS011;2949;50.778;7.094;2023-03-15T03:40:03;17.00;;;5.30;;
5845;SDS011;2949;50.778;7.094;2023-03-15T03:42:31;15.03;;;6.43;;
5845;SDS011;2949;50.778;7.094;2023-03-15T03:44:57;12.47;;;5.10;;
5845;SDS011;2949;50.778;7.094;2023-03-15T03:47:22;22.03;;;5.97;;
5845;SDS011;2949;50.778;7.094;2023-03-15T03:49:48;9.13;;;5.50;;
5845;SDS011;2949;50.778;7.094;2023-03-15T03:52:13;14.23;;;5.60;;
5845;SDS011;2949;50.778;7.094;2023-03-15T03:54:39;20.37;;;5.70;;
5845;SDS011;2949;50.778;7.094;2023-03-15T03:57:06;15.67;;;5.70;;
5845;SDS011;2949;50.778;7.094;2023-03-15T03:59:32;11.47;;;5.70;;
5845;SDS011;2949;50.778;7.094;2023-03-15T04:01:58;14.30;;;5.57;;
5845;SDS011;2949;50.778;7.094;2023-03-15T04:04:23;8.80;;;5.93;;
5845;SDS011;2949;50.778;7.094;2023-03-15T04:06:50;15.70;;;5.10;;
5845;SDS011;2949;50.778;7.094;2023-03-15T04:09:17;7.57;;;4.90;;
5845;SDS011;2949;50.778;7.094;2023-03-15T04:11:42;10.40;;;4.60;;
5845;SDS011;2949;50.778;7.094;2023-03-15T04:14:08;11.10;;;5.47;;
5845;SDS011;2949;50.778;7.094;2023-03-15T04:16:34;10.70;;;5.17;;
5845;SDS011;2949;50.778;7.094;2023-03-15T04:19:00;10.07;;;5.87;;
5845;SDS011;2949;50.778;7.094;2023-03-15T04:21:26;10.17;;;5.50;;
5845;SDS011;2949;50.778;7.094;2023-03-15T04:23:55;14.03;;;5.67;;
5845;SDS011;2949;50.778;7.094;2023-03-15T04:26:22;13.50;;;5.43;;
5845;SDS011;2949;50.778;7.094;2023-03-15T04:28:50;11.67;;;5.33;;
5845;SDS011;2949;50.778;7.094;2023-03-15T04:31:17;17.10;;;6.40;;
5845;SDS011;2949;50.778;7.094;2023-03-15T04:33:43;9.63;;;6.17;;
5845;SDS011;2949;50.778;7.094;2023-03-15T04:36:08;10.83;;;6.10;;
5845;SDS011;2949;50.778;7.094;2023-03-15T04:38:34;15.53;;;5.80;;
5845;SDS011;2949;50.778;7.094;2023-03-15T04:40:59;10.40;;;6.27;;
5845;SDS011;2949;50.778;7.094;2023-03-15T04:43:25;14.87;;;6.23;;
5845;SDS011;2949;50.778;7.094;2023-03-15T04:45:50;12.70;;;6.53;;
5845;SDS011;2949;50.778;7.094;2023-03-15T04:48:16;15.50;;;6.43;;
5845;SDS011;2949;50.778;7.094;2023-03-15T04:50:41;10.33;;;6.03;;
5845;SDS011;2949;50.778;7.094;2023-03-15T04:53:07;15.00;;;6.17;;
5845;SDS011;2949;50.778;7.094;2023-03-15T04:55:32;17.57;;;7.40;;
5845;SDS011;2949;50.778;7.094;2023-03-15T04:57:58;13.20;;;6.80;;
5845;SDS011;2949;50.778;7.094;2023-03-15T05:00:23;12.60;;;5.80;;
5845;SDS011;2949;50.778;7.094;2023-03-15T05:02:49;16.03;;;6.90;;
5845;SDS011;2949;50.778;7.094;2023-03-15T05:05:19;11.33;;;6.67;;
5845;SDS011;2949;50.778;7.094;2023-03-15T05:07:46;14.50;;;6.03;;
5845;SDS011;2949;50.778;7.094;2023-03-15T05:10:12;13.43;;;6.97;;
5845;SDS011;2949;50.778;7.094;2023-03-15T05:12:38;13.23;;;6.27;;
5845;SDS011;2949;50.778;7.094;2023-03-15T05:15:03;16.53;;;7.93;;
5845;SDS011;2949;50.778;7.094;2023-03-15T05:17:29;10.40;;;5.57;;
5845;SDS011;2949;50.778;7.094;2023-03-15T05:19:57;15.53;;;6.10;;
5845;SDS011;2949;50.778;7.094;2023-03-15T05:22:25;13.70;;;5.23;;
5845;SDS011;2949;50.778;7.094;2023-03-15T05:24:51;9.53;;;5.17;;
5845;SDS011;2949;50.778;7.094;2023-03-15T05:27:17;11.80;;;5.10;;
5845;SDS011;2949;50.778;7.094;2023-03-15T05:29:44;17.37;;;5.07;;
5845;SDS011;2949;50.778;7.094;2023-03-15T05:32:09;9.67;;;4.40;;
5845;SDS011;2949;50.778;7.094;2023-03-15T05:34:35;6.80;;;4.50;;
5845;SDS011;2949;50.778;7.094;2023-03-15T05:37:00;7.27;;;4.43;;
5845;SDS011;2949;50.778;7.094;2023-03-15T05:39:25;12.13;;;3.67;;
5845;SDS011;2949;50.778;7.094;2023-03-15T05:41:51;8.37;;;2.87;;
5845;SDS011;2949;50.778;7.094;2023-03-15T05:44:17;9.60;;;3.70;;
5845;SDS011;2949;50.778;7.094;2023-03-15T05:46:42;6.53;;;3.10;;
5845;SDS011;2949;50.778;7.094;2023-03-15T05:49:08;4.57;;;3.47;;
5845;SDS011;2949;50.778;7.094;2023-03-15T05:51:33;16.33;;;4.40;;
5845;SDS011;2949;50.778;7.094;2023-03-15T05:53:59;9.80;;;4.83;;
5845;SDS011;2949;50.778;7.094;2023-03-15T05:56:25;9.80;;;4.37;;
5845;SDS011;2949;50.778;7.094;2023-03-15T05:58:50;9.47;;;4.70;;
5845;SDS011;2949;50.778;7.094;2023-03-15T06:01:16;3.57;;;2.90;;
5845;SDS011;2949;50.778;7.094;2023-03-15T06:03:41;4.60;;;2.93;;
5845;SDS011;2949;50.778;7.094;2023-03-15T06:06:07;13.37;;;3.17;;
5845;SDS011;2949;50.778;7.094;2023-03-15T06:08:32;3.33;;;2.00;;
5845;SDS011;2949;50.778;7.094;2023-03-15T06:10:58;2.60;;;2.40;;
5845;SDS011;2949;50.778;7.094;2023-03-15T06:13:23;2.70;;;2.47;;
5845;SDS011;2949;50.778;7.094;2023-03-15T06:15:49;4.23;;;2.87;;
5845;SDS011;2949;50.778;7.094;2023-03-15T06:18:14;4.93;;;2.60;;
5845;SDS011;2949;50.778;7.094;2023-03-15T06:20:41;3.27;;;2.90;;
5845;SDS011;2949;50.778;7.094;2023-03-15T06:23:07;6.97;;;3.30;;
5845;SDS011;2949;50.778;7.094;2023-03-15T06:25:32;4.83;;;3.20;;
5845;SDS011;2949;50.778;7.094;2023-03-15T06:27:59;5.90;;;3.17;;
5845;SDS011;2949;50.778;7.094;2023-03-15T06:30:25;8.87;;;4.67;;
5845;SDS011;2949;50.778;7.094;2023-03-15T06:32:50;5.63;;;4.73;;
5845;SDS011;2949;50.778;7.094;2023-03-15T06:35:16;6.37;;;4.77;;
5845;SDS011;2949;50.778;7.094;2023-03-15T06:37:42;8.73;;;4.57;;
5845;SDS011;2949;50.778;7.094;2023-03-15T06:40:10;5.67;;;5.10;;
5845;SDS011;2949;50.778;7.094;2023-03-15T06:42:37;5.73;;;4.97;;
5845;SDS011;2949;50.778;7.094;2023-03-15T06:45:05;6.90;;;5.70;;
5845;SDS011;2949;50.778;7.094;2023-03-15T06:47:32;7.23;;;6.30;;
5845;SDS011;2949;50.778;7.094;2023-03-15T06:49:58;8.93;;;5.63;;
5845;SDS011;2949;50.778;7.094;2023-03-15T06:52:24;8.50;;;6.17;;
5845;SDS011;2949;50.778;7.094;2023-03-15T06:54:49;9.00;;;6.63;;
5845;SDS011;2949;50.778;7.094;2023-03-15T06:57:15;7.70;;;6.20;;
5845;SDS011;2949;50.778;7.094;2023-03-15T06:59:40;8.43;;;6.60;;
5845;SDS011;2949;50.778;7.094;2023-03-15T07:02:10;9.80;;;7.40;;
5845;SDS011;2949;50.778;7.094;2023-03-15T07:04:39;13.50;;;7.70;;
5845;SDS011;2949;50.778;7.094;2023-03-15T07:07:04;11.63;;;8.23;;
5845;SDS011;2949;50.778;7.094;2023-03-15T07:09:30;10.57;;;7.70;;
5845;SDS011;2949;50.778;7.094;2023-03-15T07:11:55;11.43;;;8.80;;
5845;SDS011;2949;50.778;7.094;2023-03-15T07:14:21;13.57;;;9.07;;
5845;SDS011;2949;50.778;7.094;2023-03-15T07:16:47;10.60;;;8.67;;
5845;SDS011;2949;50.778;7.094;2023-03-15T07:19:13;15.30;;;9.60;;
5845;SDS011;2949;50.778;7.094;2023-03-15T07:21:38;13.83;;;9.60;;
5845;SDS011;2949;50.778;7.094;2023-03-15T07:24:04;16.40;;;10.13;;
5845;SDS011;2949;50.778;7.094;2023-03-15T07:26:30;16.13;;;10.47;;
5845;SDS011;2949;50.778;7.094;2023-03-15T07:28:55;16.80;;;9.73;;
5845;SDS011;2949;50.778;7.094;2023-03-15T07:31:21;13.80;;;9.27;;
5845;SDS011;2949;50.778;7.094;2023-03-15T07:33:46;13.27;;;10.57;;
5845;SDS011;2949;50.778;7.094;2023-03-15T07:36:12;20.93;;;11.93;;
5845;SDS011;2949;50.778;7.094;2023-03-15T07:38:38;14.70;;;10.93;;
5845;SDS011;2949;50.778;7.094;2023-03-15T07:41:04;16.07;;;11.20;;
5845;SDS011;2949;50.778;7.094;2023-03-15T07:43:30;16.70;;;11.93;;
5845;SDS011;2949;50.778;7.094;2023-03-15T07:45:56;18.10;;;11.73;;
5845;SDS011;2949;50.778;7.094;2023-03-15T07:48:22;15.43;;;11.07;;
5845;SDS011;2949;50.778;7.094;2023-03-15T07:50:48;15.03;;;11.20;;
5845;SDS011;2949;50.778;7.094;2023-03-15T07:53:13;17.90;;;12.17;;
5845;SDS011;2949;50.778;7.094;2023-03-15T07:55:39;18.90;;;13.40;;
5845;SDS011;2949;50.778;7.094;2023-03-15T07:58:04;26.00;;;13.60;;
5845;SDS011;2949;50.778;7.094;2023-03-15T08:00:30;17.70;;;11.77;;
5845;SDS011;2949;50.778;7.094;2023-03-15T08:02:56;26.10;;;12.60;;
5845;SDS011;2949;50.778;7.094;2023-03-15T08:05:22;19.20;;;12.73;;
5845;SDS011;2949;50.778;7.094;2023-03-15T08:07:48;15.33;;;11.47;;
5845;SDS011;2949;50.778;7.094;2023-03-15T08:10:14;23.50;;;12.00;;
5845;SDS011;2949;50.778;7.094;2023-03-15T08:12:41;15.47;;;12.33;;
5845;SDS011;2949;50.778;7.094;2023-03-15T08:15:10;15.80;;;11.40;;
5845;SDS011;2949;50.778;7.094;2023-03-15T08:17:37;15.83;;;11.73;;
5845;SDS011;2949;50.778;7.094;2023-03-15T08:20:03;19.77;;;13.07;;
5845;SDS011;2949;50.778;7.094;2023-03-15T08:22:30;15.87;;;11.83;;
5845;SDS011;2949;50.778;7.094;2023-03-15T08:24:55;21.47;;;11.37;;
5845;SDS011;2949;50.778;7.094;2023-03-15T08:27:22;15.67;;;11.43;;
5845;SDS011;2949;50.778;7.094;2023-03-15T08:29:48;17.13;;;11.63;;
5845;SDS011;2949;50.778;7.094;2023-03-15T08:32:15;17.90;;;11.33;;
5845;SDS011;2949;50.778;7.094;2023-03-15T08:34:40;14.80;;;11.07;;
5845;SDS011;2949;50.778;7.094;2023-03-15T08:37:06;14.50;;;10.30;;
5845;SDS011;2949;50.778;7.094;2023-03-15T08:39:33;14.77;;;11.63;;
5845;SDS011;2949;50.778;7.094;2023-03-15T08:42:00;15.27;;;12.10;;
5845;SDS011;2949;50.778;7.094;2023-03-15T08:44:26;19.03;;;12.67;;
5845;SDS011;2949;50.778;7.094;2023-03-15T08:46:51;18.97;;;12.17;;
5845;SDS011;2949;50.778;7.094;2023-03-15T08:49:17;20.97;;;13.50;;
5845;SDS011;2949;50.778;7.094;2023-03-15T08:51:42;17.60;;;13.20;;
5845;SDS011;2949;50.778;7.094;2023-03-15T08:54:08;15.30;;;11.57;;
5845;SDS011;2949;50.778;7.094;2023-03-15T08:56:33;18.03;;;11.47;;
5845;SDS011;2949;50.778;7.094;2023-03-15T08:58:59;16.53;;;11.87;;
5845;SDS011;2949;50.778;7.094;2023-03-15T09:01:25;16.50;;;11.50;;
5845;SDS011;2949;50.778;7.094;2023-03-15T09:03:50;12.90;;;10.43;;
5845;SDS011;2949;50.778;7.094;2023-03-15T09:06:16;17.17;;;10.60;;
5845;SDS011;2949;50.778;7.094;2023-03-15T09:08:42;15.10;;;10.50;;
5845;SDS011;2949;50.778;7.094;2023-03-15T09:11:11;19.57;;;11.17;;
5845;SDS011;2949;50.778;7.094;2023-03-15T09:13:37;20.33;;;11.90;;
5845;SDS011;2949;50.778;7.094;2023-03-15T09:16:03;17.60;;;11.10;;
5845;SDS011;2949;50.778;7.094;2023-03-15T09:18:29;14.70;;;10.03;;
5845;SDS011;2949;50.778;7.094;2023-03-15T09:20:54;12.80;;;10.13;;
5845;SDS011;2949;50.778;7.094;2023-03-15T09:23:20;15.30;;;9.00;;
5845;SDS011;2949;50.778;7.094;2023-03-15T09:25:46;18.07;;;9.30;;
5845;SDS011;2949;50.778;7.094;2023-03-15T09:28:12;12.90;;;9.03;;
5845;SDS011;2949;50.778;7.094;2023-03-15T09:30:38;13.57;;;8.70;;
5845;SDS011;2949;50.778;7.094;2023-03-15T09:33:05;20.20;;;8.50;;
5845;SDS011;2949;50.778;7.094;2023-03-15T09:35:32;15.23;;;9.50;;
5845;SDS011;2949;50.778;7.094;2023-03-15T09:37:57;18.77;;;8.80;;
5845;SDS011;2949;50.778;7.094;2023-03-15T09:40:27;9.30;;;7.37;;
5845;SDS011;2949;50.778;7.094;2023-03-15T09:56:32;10.97;;;6.70;;
5845;SDS011;2949;50.778;7.094;2023-03-15T09:59:00;7.40;;;5.30;;
5845;SDS011;2949;50.778;7.094;2023-03-15T10:01:28;10.50;;;5.53;;
5845;SDS011;2949;50.778;7.094;2023-03-15T10:04:13;8.63;;;5.90;;
5845;SDS011;2949;50.778;7.094;2023-03-15T10:06:52;13.00;;;5.00;;
5845;SDS011;2949;50.778;7.094;2023-03-15T10:09:21;7.00;;;4.70;;
5845;SDS011;2949;50.778;7.094;2023-03-15T10:17:36;16.20;;;6.37;;
5845;SDS011;2949;50.778;7.094;2023-03-15T10:20:17;6.37;;;4.97;;
5845;SDS011;2949;50.778;7.094;2023-03-15T10:25:31;6.77;;;4.80;;
5845;SDS011;2949;50.778;7.094;2023-03-15T10:27:59;12.60;;;5.40;;
5845;SDS011;2949;50.778;7.094;2023-03-15T10:31:00;6.57;;;4.80;;
5845;SDS011;2949;50.778;7.094;2023-03-15T10:33:39;14.20;;;4.97;;
5845;SDS011;2949;50.778;7.094;2023-03-15T10:36:13;7.70;;;4.70;;
5845;SDS011;2949;50.778;7.094;2023-03-15T10:38:41;7.80;;;4.33;;
5845;SDS011;2949;50.778;7.094;2023-03-15T10:41:07;10.93;;;4.93;;
5845;SDS011;2949;50.778;7.094;2023-03-15T10:43:36;5.60;;;4.50;;
5845;SDS011;2949;50.778;7.094;2023-03-15T10:48:57;6.03;;;4.33;;
5845;SDS011;2949;50.778;7.094;2023-03-15T10:51:28;7.70;;;3.53;;
5845;SDS011;2949;50.778;7.094;2023-03-15T10:54:00;7.77;;;4.00;;
5845;SDS011;2949;50.778;7.094;2023-03-15T10:56:33;7.13;;;4.07;;
5845;SDS011;2949;50.778;7.094;2023-03-15T10:59:01;5.43;;;3.87;;
5845;SDS011;2949;50.778;7.094;2023-03-15T11:01:28;4.57;;;3.10;;
5845;SDS011;2949;50.778;7.094;2023-03-15T11:04:18;6.40;;;2.97;;
5845;SDS011;2949;50.778;7.094;2023-03-15T11:09:22;5.77;;;3.60;;
5845;SDS011;2949;50.778;7.094;2023-03-15T11:14:19;4.17;;;3.23;;
5845;SDS011;2949;50.778;7.094;2023-03-15T11:16:46;11.50;;;4.80;;
5845;SDS011;2949;50.778;7.094;2023-03-15T11:19:15;4.03;;;2.57;;
5845;SDS011;2949;50.778;7.094;2023-03-15T11:21:44;2.70;;;2.30;;
5845;SDS011;2949;50.778;7.094;2023-03-15T11:24:17;3.60;;;2.80;;
5845;SDS011;2949;50.778;7.094;2023-03-15T11:26:49;7.93;;;3.47;;
5845;SDS011;2949;50.778;7.094;2023-03-15T11:29:22;6.53;;;3.03;;
5845;SDS011;2949;50.778;7.094;2023-03-15T11:31:57;3.83;;;2.90;;
5845;SDS011;2949;50.778;7.094;2023-03-15T11:34:26;7.70;;;3.23;;
5845;SDS011;2949;50.778;7.094;2023-03-15T11:37:03;7.13;;;3.03;;
5845;SDS011;2949;50.778;7.094;2023-03-15T11:39:36;11.07;;;3.63;;
5845;SDS011;2949;50.778;7.094;2023-03-15T11:42:37;13.17;;;4.20;;
5845;SDS011;2949;50.778;7.094;2023-03-15T11:47:56;4.83;;;3.50;;
5845;SDS011;2949;50.778;7.094;2023-03-15T11:50:25;5.43;;;3.67;;
5845;SDS011;2949;50.778;7.094;2023-03-15T11:52:52;8.00;;;4.20;;
5845;SDS011;2949;50.778;7.094;2023-03-15T11:55:25;13.93;;;4.10;;
5845;SDS011;2949;50.778;7.094;2023-03-15T11:57:52;9.73;;;3.07;;
5845;SDS011;2949;50.778;7.094;2023-03-15T12:02:52;11.03;;;3.67;;
5845;SDS011;2949;50.778;7.094;2023-03-15T12:11:00;9.87;;;4.27;;
5845;SDS011;2949;50.778;7.094;2023-03-15T12:13:34;7.33;;;3.60;;
5845;SDS011;2949;50.778;7.094;2023-03-15T12:16:00;11.20;;;4.33;;
5845;SDS011;2949;50.778;7.094;2023-03-15T12:18:32;9.67;;;3.53;;
5845;SDS011;2949;50.778;7.094;2023-03-15T12:21:07;7.43;;;4.07;;
5845;SDS011;2949;50.778;7.094;2023-03-15T12:23:42;10.67;;;3.80;;
5845;SDS011;2949;50.778;7.094;2023-03-15T12:31:24;4.73;;;3.20;;
5845;SDS011;2949;50.778;7.094;2023-03-15T12:34:05;13.93;;;2.70;;
5845;SDS011;2949;50.778;7.094;2023-03-15T12:36:38;6.20;;;3.50;;
5845;SDS011;2949;50.778;7.094;2023-03-15T12:41:35;12.00;;;3.90;;
5845;SDS011;2949;50.778;7.094;2023-03-15T12:44:18;8.20;;;3.67;;
5845;SDS011;2949;50.778;7.094;2023-03-15T12:54:46;4.20;;;2.73;;
5845;SDS011;2949;50.778;7.094;2023-03-15T12:57:38;5.90;;;3.00;;
5845;SDS011;2949;50.778;7.094;2023-03-15T13:02:32;21.23;;;3.47;;
5845;SDS011;2949;50.778;7.094;2023-03-15T13:05:02;9.47;;;2.60;;
5845;SDS011;2949;50.778;7.094;2023-03-15T13:10:33;9.60;;;2.00;;
5845;SDS011;2949;50.778;7.094;2023-03-15T13:19:05;7.10;;;2.37;;
5845;SDS011;2949;50.778;7.094;2023-03-15T13:24:31;4.97;;;1.50;;
5845;SDS011;2949;50.778;7.094;2023-03-15T13:29:39;5.53;;;1.80;;
5845;SDS011;2949;50.778;7.094;2023-03-15T13:32:12;5.50;;;1.60;;
5845;SDS011;2949;50.778;7.094;2023-03-15T13:34:40;7.40;;;2.03;;
5845;SDS011;2949;50.778;7.094;2023-03-15T13:37:24;5.93;;;1.63;;
5845;SDS011;2949;50.778;7.094;2023-03-15T13:39:51;6.60;;;1.67;;
5845;SDS011;2949;50.778;7.094;2023-03-15T13:42:24;1.70;;;1.50;;
5845;SDS011;2949;50.778;7.094;2023-03-15T13:45:12;5.40;;;2.27;;
5845;SDS011;2949;50.778;7.094;2023-03-15T13:47:38;4.53;;;1.87;;
5845;SDS011;2949;50.778;7.094;2023-03-15T13:50:16;6.37;;;1.70;;
5845;SDS011;2949;50.778;7.094;2023-03-15T13:52:43;4.23;;;1.80;;
5845;SDS011;2949;50.778;7.094;2023-03-15T13:55:13;3.37;;;1.30;;
5845;SDS011;2949;50.778;7.094;2023-03-15T13:57:40;1.73;;;1.53;;
5845;SDS011;2949;50.778;7.094;2023-03-15T14:00:12;3.60;;;1.13;;
5845;SDS011;2949;50.778;7.094;2023-03-15T14:05:13;6.70;;;1.73;;
5845;SDS011;2949;50.778;7.094;2023-03-15T14:07:42;5.70;;;1.73;;
5845;SDS011;2949;50.778;7.094;2023-03-15T14:12:41;3.27;;;1.60;;
5845;SDS011;2949;50.778;7.094;2023-03-15T14:15:17;6.27;;;1.67;;
5845;SDS011;2949;50.778;7.094;2023-03-15T14:20:34;4.17;;;1.47;;
5845;SDS011;2949;50.778;7.094;2023-03-15T14:23:04;6.07;;;1.57;;
5845;SDS011;2949;50.778;7.094;2023-03-15T14:25:34;2.50;;;1.70;;
5845;SDS011;2949;50.778;7.094;2023-03-15T14:28:01;4.47;;;2.40;;
5845;SDS011;2949;50.778;7.094;2023-03-15T14:30:28;1.30;;;1.20;;
5845;SDS011;2949;50.778;7.094;2023-03-15T14:32:57;6.10;;;1.20;;
5845;SDS011;2949;50.778;7.094;2023-03-15T14:35:30;3.53;;;1.50;;
5845;SDS011;2949;50.778;7.094;2023-03-15T14:40:48;7.97;;;2.10;;
5845;SDS011;2949;50.778;7.094;2023-03-15T14:43:16;4.50;;;1.63;;
5845;SDS011;2949;50.778;7.094;2023-03-15T14:45:42;4.97;;;1.83;;
5845;SDS011;2949;50.778;7.094;2023-03-15T14:48:13;2.50;;;1.60;;
5845;SDS011;2949;50.778;7.094;2023-03-15T14:50:51;3.80;;;1.60;;
5845;SDS011;2949;50.778;7.094;2023-03-15T14:53:18;4.63;;;1.70;;
5845;SDS011;2949;50.778;7.094;2023-03-15T14:55:46;4.63;;;2.10;;
5845;SDS011;2949;50.778;7.094;2023-03-15T14:58:12;5.30;;;1.60;;
5845;SDS011;2949;50.778;7.094;2023-03-15T15:00:41;3.10;;;1.70;;
5845;SDS011;2949;50.778;7.094;2023-03-15T15:03:29;6.00;;;2.97;;
5845;SDS011;2949;50.778;7.094;2023-03-15T15:06:02;11.33;;;2.13;;
5845;SDS011;2949;50.778;7.094;2023-03-15T15:08:30;8.57;;;2.17;;
5845;SDS011;2949;50.778;7.094;2023-03-15T15:10:57;6.27;;;2.07;;
5845;SDS011;2949;50.778;7.094;2023-03-15T15:13:25;4.63;;;1.67;;
5845;SDS011;2949;50.778;7.094;2023-03-15T15:15:52;3.10;;;1.60;;
5845;SDS011;2949;50.778;7.094;2023-03-15T15:18:18;1.90;;;1.10;;
5845;SDS011;2949;50.778;7.094;2023-03-15T15:20:44;5.40;;;1.03;;
5845;SDS011;2949;50.778;7.094;2023-03-15T15:23:15;2.97;;;1.47;;
5845;SDS011;2949;50.778;7.094;2023-03-15T15:25:43;2.93;;;1.50;;
5845;SDS011;2949;50.778;7.094;2023-03-15T15:28:09;10.07;;;1.00;;
5845;SDS011;2949;50.778;7.094;2023-03-15T15:30:36;3.33;;;0.77;;
5845;SDS011;2949;50.778;7.094;2023-03-15T15:33:02;1.60;;;0.97;;
5845;SDS011;2949;50.778;7.094;2023-03-15T15:35:28;5.50;;;0.80;;
5845;SDS011;2949;50.778;7.094;2023-03-15T15:37:54;2.10;;;1.10;;
5845;SDS011;2949;50.778;7.094;2023-03-15T15:40:21;1.73;;;0.90;;
5845;SDS011;2949;50.778;7.094;2023-03-15T15:42:51;4.87;;;1.37;;
5845;SDS011;2949;50.778;7.094;2023-03-15T15:45:17;2.30;;;0.80;;
5845;SDS011;2949;50.778;7.094;2023-03-15T15:47:43;2.57;;;0.90;;
5845;SDS011;2949;50.778;7.094;2023-03-15T15:50:10;2.13;;;0.73;;
5845;SDS011;2949;50.778;7.094;2023-03-15T15:52:38;2.67;;;0.70;;
5845;SDS011;2949;50.778;7.094;2023-03-15T15:55:10;9.23;;;1.40;;
5845;SDS011;2949;50.778;7.094;2023-03-15T15:57:37;1.53;;;0.90;;
5845;SDS011;2949;50.778;7.094;2023-03-15T16:00:04;2.47;;;0.80;;
5845;SDS011;2949;50.778;7.094;2023-03-15T16:02:32;1.07;;;0.93;;
5845;SDS011;2949;50.778;7.094;2023-03-15T16:04:57;5.73;;;1.10;;
5845;SDS011;2949;50.778;7.094;2023-03-15T16:07:23;2.47;;;0.90;;
5845;SDS011;2949;50.778;7.094;2023-03-15T16:09:48;2.10;;;0.73;;
5845;SDS011;2949;50.778;7.094;2023-03-15T16:12:18;2.83;;;1.03;;
5845;SDS011;2949;50.778;7.094;2023-03-15T16:14:44;2.10;;;0.77;;
5845;SDS011;2949;50.778;7.094;2023-03-15T16:17:17;3.80;;;0.97;;
5845;SDS011;2949;50.778;7.094;2023-03-15T16:19:45;2.00;;;1.00;;
5845;SDS011;2949;50.778;7.094;2023-03-15T16:22:11;1.60;;;0.70;;
5845;SDS011;2949;50.778;7.094;2023-03-15T16:24:36;4.20;;;1.00;;
5845;SDS011;2949;50.778;7.094;2023-03-15T16:27:04;0.63;;;0.57;;
5845;SDS011;2949;50.778;7.094;2023-03-15T16:29:35;2.30;;;0.97;;
5845;SDS011;2949;50.778;7.094;2023-03-15T16:32:03;0.60;;;0.60;;
5845;SDS011;2949;50.778;7.094;2023-03-15T16:34:30;2.00;;;0.80;;
5845;SDS011;2949;50.778;7.094;2023-03-15T16:36:58;4.73;;;1.00;;
5845;SDS011;2949;50.778;7.094;2023-03-15T16:39:25;1.13;;;0.87;;
5845;SDS011;2949;50.778;7.094;2023-03-15T16:41:51;2.50;;;1.07;;